createdAt,value
2019-02-16T00:01:36.743Z,3.97
2019-02-16T00:04:05.603Z,4.10
2019-02-16T00:06:34.449Z,3.87
2019-02-16T00:09:03.674Z,3.87
2019-02-16T00:11:32.524Z,4.63
2019-02-16T00:14:01.386Z,4.40
2019-02-16T00:16:30.217Z,4.60
2019-02-16T00:18:59.144Z,4.40
2019-02-16T00:21:27.989Z,4.50
2019-02-16T00:23:56.863Z,3.97
2019-02-16T00:26:25.712Z,4.17
2019-02-16T00:28:54.586Z,4.37
2019-02-16T00:31:23.431Z,3.93
2019-02-16T00:33:52.304Z,4.57
2019-02-16T00:36:21.201Z,3.87
2019-02-16T00:38:50.086Z,3.93
2019-02-16T00:41:19.011Z,3.87
2019-02-16T00:43:48.091Z,3.67
2019-02-16T00:46:17.055Z,3.70
2019-02-16T00:48:45.920Z,3.73
2019-02-16T00:51:14.770Z,4.10
2019-02-16T00:53:43.623Z,3.97
2019-02-16T00:56:12.543Z,3.87
2019-02-16T00:58:41.409Z,3.80
2019-02-16T01:01:10.275Z,3.80
2019-02-16T01:03:39.194Z,3.50
2019-02-16T01:06:08.017Z,3.50
2019-02-16T01:08:36.894Z,3.77
2019-02-16T01:11:05.718Z,3.73
2019-02-16T01:13:34.670Z,4.23
2019-02-16T01:16:03.612Z,4.27
2019-02-16T01:18:32.471Z,4.33
2019-02-16T01:21:01.357Z,3.63
2019-02-16T01:23:30.231Z,4.00
2019-02-16T01:25:59.185Z,4.07
2019-02-16T01:28:28.025Z,4.17
2019-02-16T01:30:56.897Z,4.40
2019-02-16T01:33:25.747Z,4.23
2019-02-16T01:35:54.652Z,4.43
2019-02-16T01:38:23.493Z,4.43
2019-02-16T01:40:52.435Z,4.20
2019-02-16T01:43:21.249Z,4.30
2019-02-16T01:45:50.195Z,4.30
2019-02-16T01:48:19.020Z,4.30
2019-02-16T01:50:48.082Z,4.23
2019-02-16T01:53:17.002Z,4.63
2019-02-16T01:55:47.482Z,4.87
2019-02-16T01:58:16.520Z,5.13
2019-02-16T02:00:45.491Z,4.87
2019-02-16T02:03:14.327Z,4.60
2019-02-16T02:05:43.190Z,4.60
2019-02-16T02:08:12.073Z,4.53
2019-02-16T02:10:40.935Z,4.90
2019-02-16T02:13:09.813Z,4.97
2019-02-16T02:15:38.666Z,4.87
2019-02-16T02:18:07.530Z,4.77
2019-02-16T02:20:36.391Z,4.50
2019-02-16T02:23:05.225Z,4.67
2019-02-16T02:25:34.107Z,4.70
2019-02-16T02:28:02.970Z,5.23
2019-02-16T02:30:31.841Z,4.90
2019-02-16T02:33:00.698Z,4.67
2019-02-16T02:35:29.563Z,5.37
2019-02-16T02:37:58.454Z,4.30
2019-02-16T02:40:27.310Z,4.00
2019-02-16T02:42:56.128Z,4.60
2019-02-16T02:45:25.017Z,4.90
2019-02-16T02:47:53.905Z,4.57
2019-02-16T02:50:22.755Z,4.47
2019-02-16T02:52:51.646Z,4.57
2019-02-16T02:55:20.530Z,4.60
2019-02-16T02:57:49.380Z,4.97
2019-02-16T03:00:18.264Z,5.27
2019-02-16T03:02:47.118Z,4.97
2019-02-16T03:05:15.991Z,5.43
2019-02-16T03:07:44.813Z,4.30
2019-02-16T03:10:13.740Z,4.83
2019-02-16T03:12:42.542Z,4.63
2019-02-16T03:15:11.380Z,4.67
2019-02-16T03:17:40.289Z,4.73
2019-02-16T03:20:09.123Z,4.73
2019-02-16T03:22:56.080Z,5.03
2019-02-16T03:25:24.919Z,4.77
2019-02-16T03:28:00.995Z,4.50
2019-02-16T03:30:50.688Z,5.10
2019-02-16T03:33:40.274Z,5.47
2019-02-16T03:36:17.254Z,4.67
2019-02-16T03:38:57.676Z,4.20
2019-02-16T03:41:26.529Z,4.37
2019-02-16T03:43:55.462Z,4.70
2019-02-16T03:46:24.323Z,5.00
2019-02-16T03:48:53.251Z,4.53
2019-02-16T03:51:22.145Z,5.03
2019-02-16T03:53:51.021Z,4.77
2019-02-16T03:56:19.938Z,4.90
2019-02-16T03:58:48.778Z,4.90
2019-02-16T04:01:17.661Z,4.50
2019-02-16T04:03:46.615Z,4.53
2019-02-16T04:06:15.475Z,4.50
2019-02-16T04:08:44.467Z,5.05
2019-02-16T04:11:13.456Z,4.73
2019-02-16T04:13:42.446Z,5.30
2019-02-16T04:16:11.531Z,5.30
2019-02-16T04:18:40.632Z,5.07
2019-02-16T04:21:09.522Z,5.20
2019-02-16T04:23:38.402Z,5.50
2019-02-16T04:26:09.151Z,5.07
2019-02-16T04:28:40.529Z,5.07
2019-02-16T04:31:09.502Z,4.77
2019-02-16T04:33:38.549Z,5.00
2019-02-16T04:36:07.384Z,5.17
2019-02-16T04:38:36.375Z,5.67
2019-02-16T04:41:05.355Z,5.20
2019-02-16T04:43:36.019Z,4.40
2019-02-16T04:46:04.985Z,4.33
2019-02-16T04:48:33.986Z,5.13
2019-02-16T04:51:02.915Z,5.30
2019-02-16T04:53:31.798Z,16.30
2019-02-16T04:56:00.666Z,11.37
2019-02-16T04:58:29.626Z,7.33
2019-02-16T05:00:58.509Z,5.80
2019-02-16T05:03:27.530Z,5.73
2019-02-16T05:05:56.388Z,5.90
2019-02-16T05:08:25.316Z,5.47
2019-02-16T05:10:54.206Z,5.50
2019-02-16T05:13:23.102Z,5.50
2019-02-16T05:15:52.038Z,5.37
2019-02-16T05:18:20.968Z,5.40
2019-02-16T05:20:49.923Z,6.27
2019-02-16T05:23:18.840Z,5.80
2019-02-16T05:25:47.716Z,5.80
2019-02-16T05:28:16.750Z,5.60
2019-02-16T05:30:45.614Z,6.40
2019-02-16T05:33:14.568Z,4.87
2019-02-16T05:35:43.603Z,5.83
2019-02-16T05:38:12.617Z,5.20
2019-02-16T05:40:41.570Z,6.10
2019-02-16T05:43:10.574Z,5.10
2019-02-16T05:45:39.487Z,6.67
2019-02-16T05:48:08.429Z,7.20
2019-02-16T05:50:37.311Z,6.53
2019-02-16T05:53:06.259Z,6.07
2019-02-16T05:55:35.158Z,6.47
2019-02-16T05:58:04.044Z,6.37
2019-02-16T06:00:32.904Z,6.17
2019-02-16T06:03:01.819Z,6.13
2019-02-16T06:05:30.675Z,6.30
2019-02-16T06:07:59.744Z,6.20
2019-02-16T06:10:28.793Z,6.20
2019-02-16T06:12:57.735Z,6.63
2019-02-16T06:15:26.872Z,7.13
2019-02-16T06:17:55.733Z,6.57
2019-02-16T06:20:24.733Z,7.30
2019-02-16T06:23:03.496Z,6.27
2019-02-16T06:25:24.369Z,6.23
2019-02-16T06:27:53.288Z,11.43
2019-02-16T06:30:22.296Z,8.83
2019-02-16T06:32:51.246Z,6.63
2019-02-16T06:35:30.658Z,7.40
2019-02-16T06:37:59.604Z,7.27
2019-02-16T06:40:28.468Z,6.77
2019-02-16T06:42:57.552Z,6.20
2019-02-16T06:45:26.430Z,8.27
2019-02-16T06:47:55.437Z,6.67
2019-02-16T06:50:24.449Z,8.17
2019-02-16T06:52:53.397Z,39.13
2019-02-16T06:55:24.182Z,21.77
2019-02-16T06:57:54.865Z,23.50
2019-02-16T07:00:26.633Z,13.13
2019-02-16T07:02:55.568Z,10.23
2019-02-16T07:05:24.614Z,9.53
2019-02-16T07:07:53.508Z,8.43
2019-02-16T07:10:22.382Z,7.67
2019-02-16T07:12:51.345Z,7.30
2019-02-16T07:15:20.355Z,8.83
2019-02-16T07:17:52.884Z,8.80
2019-02-16T07:20:23.679Z,9.13
2019-02-16T07:22:52.950Z,8.73
2019-02-16T07:25:21.929Z,8.17
2019-02-16T07:27:50.917Z,8.00
2019-02-16T07:30:19.998Z,7.47
2019-02-16T07:32:48.897Z,7.77
2019-02-16T07:35:17.890Z,8.00
2019-02-16T07:37:46.904Z,7.80
2019-02-16T07:40:15.852Z,6.37
2019-02-16T07:43:09.644Z,7.40
2019-02-16T07:45:55.754Z,10.00
2019-02-16T07:48:43.682Z,8.90
2019-02-16T07:51:21.076Z,10.03
2019-02-16T07:54:06.177Z,10.53
2019-02-16T07:56:41.126Z,10.67
2019-02-16T07:59:29.041Z,10.63
2019-02-16T08:02:16.978Z,13.07
2019-02-16T08:05:03.555Z,14.50
2019-02-16T08:07:50.143Z,13.97
2019-02-16T08:10:36.786Z,18.07
2019-02-16T08:13:30.975Z,10.73
2019-02-16T08:16:11.216Z,10.13
2019-02-16T08:18:58.159Z,7.63
2019-02-16T08:21:46.253Z,9.37
2019-02-16T08:24:38.684Z,7.07
2019-02-16T08:27:42.006Z,6.70
2019-02-16T08:30:32.511Z,5.33
2019-02-16T08:33:26.572Z,5.27
2019-02-16T08:36:20.546Z,4.80
2019-02-16T08:39:11.337Z,5.50
2019-02-16T08:42:14.458Z,4.97
2019-02-16T08:45:02.354Z,4.53
2019-02-16T08:47:50.312Z,4.93
2019-02-16T08:50:41.301Z,5.13
2019-02-16T08:53:16.057Z,5.10
2019-02-16T08:56:02.944Z,5.23
2019-02-16T08:58:50.875Z,4.73
2019-02-16T09:01:45.178Z,5.10
2019-02-16T09:04:39.043Z,4.90
2019-02-16T09:07:28.913Z,5.00
2019-02-16T09:10:25.886Z,5.23
2019-02-16T09:12:59.616Z,5.27
2019-02-16T09:15:59.795Z,5.60
2019-02-16T09:18:57.453Z,5.20
2019-02-16T09:21:32.737Z,5.73
2019-02-16T09:24:29.647Z,5.53
2019-02-16T09:27:35.768Z,5.40
2019-02-16T09:30:23.058Z,5.07
2019-02-16T09:33:20.300Z,5.27
2019-02-16T09:36:11.049Z,6.03
2019-02-16T09:39:14.310Z,5.80
2019-02-16T09:41:54.957Z,5.90
2019-02-16T09:44:43.666Z,5.23
2019-02-16T09:47:26.574Z,6.03
2019-02-16T09:50:17.378Z,6.13
2019-02-16T09:53:10.247Z,6.40
2019-02-16T09:55:56.892Z,5.90
2019-02-16T09:58:39.478Z,6.10
2019-02-16T10:01:16.868Z,5.93
2019-02-16T10:04:02.862Z,5.60
2019-02-16T10:06:49.395Z,6.17
2019-02-16T10:09:37.280Z,6.00
2019-02-16T10:12:37.870Z,5.97
2019-02-16T10:15:38.590Z,6.03
2019-02-16T10:18:31.260Z,5.93
2019-02-16T10:21:22.470Z,5.83
2019-02-16T10:24:18.234Z,5.67
2019-02-16T10:27:09.316Z,6.00
2019-02-16T10:30:03.372Z,6.53
2019-02-16T10:32:50.234Z,5.93
2019-02-16T10:35:47.643Z,12.83
2019-02-16T10:38:35.530Z,7.03
2019-02-16T10:41:32.676Z,7.13
2019-02-16T10:44:39.193Z,7.60
2019-02-16T10:47:27.133Z,7.07
2019-02-16T10:50:18.006Z,7.00
2019-02-16T10:52:58.893Z,7.20
2019-02-16T10:55:45.806Z,6.93
2019-02-16T10:58:32.678Z,6.67
2019-02-16T11:01:19.611Z,6.30
2019-02-16T11:03:56.411Z,6.67
2019-02-16T11:06:46.366Z,6.37
2019-02-16T11:09:34.411Z,6.13
2019-02-16T11:12:16.146Z,6.63
2019-02-16T11:15:09.962Z,6.67
2019-02-16T11:18:04.687Z,6.43
2019-02-16T11:20:45.931Z,6.80
2019-02-16T11:23:32.868Z,7.10
2019-02-16T11:26:23.791Z,6.60
2019-02-16T11:29:01.206Z,6.60
2019-02-16T11:31:43.353Z,6.40
2019-02-16T11:34:30.231Z,6.53
2019-02-16T11:37:21.170Z,7.37
2019-02-16T11:39:57.164Z,7.13
2019-02-16T11:42:37.488Z,7.43
2019-02-16T11:45:22.867Z,7.47
2019-02-16T11:48:06.936Z,6.73
2019-02-16T11:51:01.358Z,6.60
2019-02-16T11:53:38.745Z,7.20
2019-02-16T11:56:41.964Z,7.40
2019-02-16T11:59:35.920Z,7.20
2019-02-16T12:02:40.041Z,7.00
2019-02-16T12:05:18.496Z,7.57
2019-02-16T12:08:18.842Z,7.67
2019-02-16T12:11:10.437Z,7.37
2019-02-16T12:14:09.288Z,7.57
2019-02-16T12:16:57.292Z,7.57
2019-02-16T12:19:46.894Z,7.43
2019-02-16T12:22:41.214Z,7.20
2019-02-16T12:25:20.646Z,7.40
2019-02-16T12:28:00.808Z,7.33
2019-02-16T12:30:47.099Z,7.90
2019-02-16T12:33:38.216Z,7.87
2019-02-16T12:36:32.425Z,8.27
2019-02-16T12:39:26.494Z,8.10
2019-02-16T12:42:22.173Z,7.73
2019-02-16T12:45:19.053Z,7.17
2019-02-16T12:48:17.725Z,7.00
2019-02-16T12:51:05.716Z,8.23
2019-02-16T12:53:52.368Z,7.73
2019-02-16T12:56:27.348Z,7.53
2019-02-16T12:59:05.735Z,8.37
2019-02-16T13:01:45.514Z,7.87
2019-02-16T13:04:34.279Z,8.00
2019-02-16T13:07:31.471Z,8.30
2019-02-16T13:10:09.897Z,7.77
2019-02-16T13:12:48.148Z,8.27
2019-02-16T13:15:34.696Z,8.03
2019-02-16T13:18:31.823Z,7.70
2019-02-16T13:21:10.781Z,8.53
2019-02-16T13:24:07.955Z,9.23
2019-02-16T13:27:05.333Z,7.77
2019-02-16T13:29:49.252Z,7.80
2019-02-16T13:32:28.439Z,7.73
2019-02-16T13:35:25.624Z,8.43
2019-02-16T13:38:18.248Z,8.27
2019-02-16T13:41:06.212Z,8.80
2019-02-16T13:43:44.325Z,8.50
2019-02-16T13:46:31.312Z,8.67
2019-02-16T13:49:08.587Z,9.47
2019-02-16T13:51:52.456Z,9.13
2019-02-16T13:54:27.612Z,8.53
2019-02-16T13:57:24.732Z,7.97
2019-02-16T14:00:11.943Z,9.83
2019-02-16T14:02:51.191Z,8.57
2019-02-16T14:05:28.186Z,9.37
2019-02-16T14:08:08.107Z,9.23
2019-02-16T14:10:47.504Z,9.83
2019-02-16T14:13:44.806Z,10.33
2019-02-16T14:16:38.789Z,10.63
2019-02-16T14:19:07.698Z,8.43
2019-02-16T14:21:36.773Z,9.53
2019-02-16T14:24:05.948Z,9.40
2019-02-16T14:26:34.926Z,8.97
2019-02-16T14:29:03.812Z,9.63
2019-02-16T14:31:32.765Z,8.60
2019-02-16T14:34:01.817Z,8.53
2019-02-16T14:36:30.814Z,9.43
2019-02-16T14:39:30.925Z,8.83
2019-02-16T14:41:59.862Z,9.67
2019-02-16T14:44:28.953Z,9.87
2019-02-16T14:46:57.975Z,7.53
2019-02-16T14:49:27.025Z,8.17
2019-02-16T14:51:55.996Z,9.23
2019-02-16T14:54:24.947Z,8.40
2019-02-16T14:56:54.190Z,9.03
2019-02-16T14:59:23.056Z,9.67
2019-02-16T15:01:51.988Z,10.07
2019-02-16T15:04:21.102Z,11.97
2019-02-16T15:06:50.126Z,9.53
2019-02-16T15:09:18.950Z,10.90
2019-02-16T15:11:47.921Z,10.20
2019-02-16T15:14:16.932Z,10.83
2019-02-16T15:16:45.858Z,11.17
2019-02-16T15:19:14.954Z,11.30
2019-02-16T15:21:43.933Z,10.70
2019-02-16T15:24:13.094Z,10.43
2019-02-16T15:26:41.959Z,9.97
2019-02-16T15:29:10.902Z,9.27
2019-02-16T15:31:39.849Z,11.33
2019-02-16T15:34:08.759Z,10.10
2019-02-16T15:36:37.667Z,10.70
2019-02-16T15:39:07.242Z,9.57
2019-02-16T15:41:36.157Z,9.97
2019-02-16T15:44:05.234Z,10.20
2019-02-16T15:46:34.241Z,10.47
2019-02-16T15:49:03.428Z,11.83
2019-02-16T15:51:32.307Z,10.77
2019-02-16T15:54:01.264Z,10.17
2019-02-16T15:56:30.207Z,9.43
2019-02-16T15:58:59.114Z,9.73
2019-02-16T16:01:28.019Z,9.53
2019-02-16T16:03:56.969Z,11.03
2019-02-16T16:06:25.985Z,9.50
2019-02-16T16:09:13.896Z,9.37
2019-02-16T16:11:59.590Z,11.93
2019-02-16T16:14:40.587Z,13.80
2019-02-16T16:17:26.277Z,12.53
2019-02-16T16:20:08.227Z,13.87
2019-02-16T16:22:44.061Z,13.00
2019-02-16T16:25:21.370Z,13.67
2019-02-16T16:28:06.449Z,14.37
2019-02-16T16:30:43.131Z,14.10
2019-02-16T16:33:34.968Z,14.37
2019-02-16T16:36:26.040Z,11.90
2019-02-16T16:39:12.946Z,12.43
2019-02-16T16:41:55.767Z,12.47
2019-02-16T16:44:46.643Z,14.10
2019-02-16T16:47:27.843Z,14.40
2019-02-16T16:50:18.783Z,13.27
2019-02-16T16:53:10.418Z,14.23
2019-02-16T16:55:47.228Z,12.83
2019-02-16T16:58:35.307Z,12.60
2019-02-16T17:01:22.429Z,12.33
2019-02-16T17:04:03.124Z,14.73
2019-02-16T17:07:09.379Z,15.27
2019-02-16T17:10:15.498Z,16.00
2019-02-16T17:13:01.921Z,30.20
2019-02-16T17:15:40.320Z,27.43
2019-02-16T17:18:34.326Z,26.27
2019-02-16T17:21:20.905Z,25.60
2019-02-16T17:24:11.878Z,15.27
2019-02-16T17:27:03.025Z,13.90
2019-02-16T17:29:47.685Z,13.70
2019-02-16T17:32:47.755Z,13.73
2019-02-16T17:35:27.890Z,12.03
2019-02-16T17:38:34.577Z,11.93
2019-02-16T17:41:28.359Z,11.40
2019-02-16T17:44:22.293Z,12.53
2019-02-16T17:47:16.358Z,13.47
2019-02-16T17:50:04.420Z,14.57
2019-02-16T17:52:51.301Z,17.87
2019-02-16T17:55:26.958Z,18.23
2019-02-16T17:58:30.193Z,19.40
2019-02-16T18:01:17.143Z,18.10
2019-02-16T18:04:04.084Z,20.20
2019-02-16T18:06:51.094Z,17.57
2019-02-16T18:09:48.973Z,16.30
2019-02-16T18:12:39.475Z,14.13
2019-02-16T18:15:18.625Z,13.07
2019-02-16T18:18:12.985Z,13.00
2019-02-16T18:21:03.851Z,13.47
2019-02-16T18:23:43.404Z,12.73
2019-02-16T18:26:30.026Z,14.23
2019-02-16T18:29:19.170Z,11.83
2019-02-16T18:32:05.920Z,11.40
2019-02-16T18:34:56.881Z,14.30
2019-02-16T18:37:54.081Z,13.40
2019-02-16T18:40:33.187Z,13.37
2019-02-16T18:43:30.411Z,12.17
2019-02-16T18:46:33.703Z,11.07
2019-02-16T18:49:13.748Z,11.80
2019-02-16T18:52:04.879Z,10.63
2019-02-16T18:54:59.056Z,11.97
2019-02-16T18:57:55.749Z,11.93
2019-02-16T19:00:39.398Z,11.43
2019-02-16T19:03:25.170Z,12.00
2019-02-16T19:06:12.715Z,15.63
2019-02-16T19:08:59.340Z,16.67
2019-02-16T19:11:54.599Z,13.47
2019-02-16T19:14:57.614Z,11.97
2019-02-16T19:17:32.738Z,11.63
2019-02-16T19:20:23.712Z,12.57
2019-02-16T19:23:10.515Z,11.57
2019-02-16T19:25:46.647Z,11.20
2019-02-16T19:28:31.626Z,10.97
2019-02-16T19:31:28.642Z,12.30
2019-02-16T19:34:28.706Z,12.13
2019-02-16T19:37:22.826Z,10.37
2019-02-16T19:40:16.615Z,11.00
2019-02-16T19:43:04.605Z,10.63
2019-02-16T19:46:10.785Z,11.07
2019-02-16T19:49:05.166Z,10.83
2019-02-16T19:51:44.688Z,10.83
2019-02-16T19:54:24.648Z,11.67
2019-02-16T19:57:11.499Z,11.47
2019-02-16T19:59:58.462Z,12.27
2019-02-16T20:02:37.418Z,12.50
2019-02-16T20:05:14.783Z,13.17
2019-02-16T20:07:49.220Z,13.63
2019-02-16T20:10:40.329Z,14.87
2019-02-16T20:13:32.577Z,13.33
2019-02-16T20:16:13.481Z,15.87
2019-02-16T20:18:51.947Z,16.50
2019-02-16T20:21:46.008Z,13.87
2019-02-16T20:24:49.055Z,12.77
2019-02-16T20:27:36.975Z,17.03
2019-02-16T20:30:17.635Z,12.53
2019-02-16T20:33:08.566Z,12.90
2019-02-16T20:35:50.174Z,14.90
2019-02-16T20:38:47.454Z,14.73
2019-02-16T20:41:35.374Z,15.80
2019-02-16T20:44:32.386Z,15.63
2019-02-16T20:47:18.971Z,15.20
2019-02-16T20:50:08.317Z,16.77
2019-02-16T20:52:51.667Z,14.90
2019-02-16T20:55:51.855Z,16.40
2019-02-16T20:58:49.251Z,16.27
2019-02-16T21:01:24.435Z,15.90
2019-02-16T21:04:19.614Z,14.50
2019-02-16T21:07:00.168Z,15.23
2019-02-16T21:09:46.156Z,15.40
2019-02-16T21:12:40.610Z,15.47
2019-02-16T21:15:31.550Z,14.90
2019-02-16T21:18:28.712Z,15.37
2019-02-16T21:21:08.302Z,15.60
2019-02-16T21:24:08.720Z,14.73
2019-02-16T21:26:47.429Z,16.40
2019-02-16T21:29:44.755Z,15.70
2019-02-16T21:32:45.133Z,15.93
2019-02-16T21:35:31.949Z,14.40
2019-02-16T21:38:16.541Z,14.70
2019-02-16T21:41:03.326Z,14.67
2019-02-16T21:43:43.273Z,17.50
2019-02-16T21:46:40.172Z,17.27
2019-02-16T21:49:31.076Z,15.97
2019-02-16T21:52:18.961Z,15.97
2019-02-16T21:54:56.918Z,17.63
2019-02-16T21:57:37.004Z,19.70
2019-02-16T22:00:43.220Z,17.10
2019-02-16T22:03:49.360Z,15.63
2019-02-16T22:06:39.928Z,17.60
2019-02-16T22:09:30.615Z,16.50
2019-02-16T22:12:11.775Z,16.27
2019-02-16T22:14:40.647Z,15.23
2019-02-16T22:17:09.647Z,15.03
2019-02-16T22:19:38.691Z,14.37
2019-02-16T22:22:07.654Z,15.67
2019-02-16T22:24:36.615Z,14.73
2019-02-16T22:27:06.974Z,13.73
2019-02-16T22:29:35.999Z,14.33
2019-02-16T22:32:04.876Z,15.03
2019-02-16T22:34:33.853Z,14.70
2019-02-16T22:37:02.724Z,14.13
2019-02-16T22:39:31.616Z,15.27
2019-02-16T22:42:00.496Z,15.97
2019-02-16T22:44:29.418Z,15.50
2019-02-16T22:46:58.420Z,13.63
2019-02-16T22:49:27.411Z,15.40
2019-02-16T22:51:56.385Z,15.47
2019-02-16T22:54:25.372Z,15.10
2019-02-16T22:56:54.317Z,14.57
2019-02-16T22:59:23.311Z,15.20
2019-02-16T23:01:52.179Z,16.77
2019-02-16T23:04:21.265Z,16.77
2019-02-16T23:06:50.083Z,15.60
2019-02-16T23:09:29.699Z,16.53
2019-02-16T23:11:58.577Z,16.90
2019-02-16T23:14:27.549Z,16.40
2019-02-16T23:16:56.441Z,16.30
2019-02-16T23:19:25.509Z,17.53
2019-02-16T23:21:54.462Z,17.40
2019-02-16T23:24:23.366Z,17.33
2019-02-16T23:26:52.288Z,16.33
2019-02-16T23:29:21.304Z,15.70
2019-02-16T23:31:50.414Z,17.43
2019-02-16T23:34:19.408Z,17.60
2019-02-16T23:36:48.487Z,16.87
2019-02-16T23:39:17.369Z,15.70
2019-02-16T23:41:46.278Z,16.63
2019-02-16T23:44:15.252Z,16.20
2019-02-16T23:46:44.240Z,17.83
2019-02-16T23:49:13.233Z,16.80
2019-02-16T23:51:42.222Z,17.87
2019-02-16T23:54:11.211Z,16.80
2019-02-16T23:56:40.220Z,16.33
2019-02-16T23:59:09.151Z,16.33
